Main page
METAR-TAF:

METAR-TAF

Airports :

Istanbul Atatürk Airport

Istanbul Atatürk, Turkey

latitude: 40-58N, longitude: 028-49E, elevation: 48 m

Current weather observation

The report was made 37 minutes ago, at 02:50 UTC
Wind 7 kt from the North/Northwest
Temperature -1°C
Humidity 86%
Pressure 1034 hPa
Visibility 10 km or more
no clouds below 1500 m and no cumulonimbus

METAR: LTBA 220250Z 34007KT CAVOK M01/M03 Q1034 NOSIG RMK RWY17L 34004KT RWY05 35006KT RWY23 33006KT

Time: 06:27 (03:27 UTC)

Forecast

The report was made 4 hours and 47 minutes ago, at 22:40 UTC
Forecast valid from 22 at 00 UTC to 23 at 06 UTC
Wind 6 kt from the North
Visibility 10 km or more
no clouds below 1500 m and no cumulonimbus
Becoming
from 22 at 06 UTC to 22 at 09 UTC
Wind 10 kt from the West/Southwest
Becoming
from 23 at 02 UTC to 23 at 05 UTC
Wind 15 kt from the North
Scattered clouds at a height of 3200 ft

TAF: LTBA 212240Z 2200/2306 36006KT CAVOK BECMG 2206/2209 24010KT BECMG 2302/2305 35015KT SCT032

Weather observations and forecasts of more than 4000 airports (METAR and TAF reports).

The available stations are represented by yellow and red dots on the map.

Hover mouse over dot to see the name of the station.

Then click to see weather observations and forecasts.

To change the map : click on the green buttons with a black cross to zoom in, on the green button with a dash to zoom out, or on the green arrows for adjacent maps.


METAR-TAF: